Skip Navigation Links Skip Navigation Links

Current Weather

Otsego County, Gaylord, Mich.

For information only: do not use for flight planning or navigation.
Latest weather
Observation time Friday, May 29, 2020 6:53 PM EDT
Local time Friday, May 29, 2020 7:45 PM EDT
Flight conditions Visual Meteorological Conditions
Winds
Wind direction West-Northwest (300°)
Wind speed 10 mph
Wind gusting to 23 mph
Visibility 10 mi.
Sky condition
Ceiling unlimited
Cloud layer scattered clouds 2,600 ft.
Temperature 60°F
Dewpoint 50°F
Altimeter 29.92 in.Hg
Derived measurements
Relative humidity 69%
Density altitude 1575 ft.
Sea-level pressure 29.92 in.Hg
Remarks
Fully automated report.
Automated weather observing station with precipitation discriminator.
METAR KGLR 292253Z AUTO 30009G20KT 10SM SCT026 16/10 A2992 RMK AO2 SLP133 T01560100

Settings

Location code

InnerDrive.Weather 4.0.6770.0 Release CLR 4.0.30319.42000
Copyright ©2018 Inner Drive Technology. All rights reserved. Portions Copyright ©1986-2018 David Braverman.

Find weather

Site navigation


Skip Navigation Links

Place info

Page info

PayPal - The safer, easier way to pay online!

Return home.

Copyright ©2020 Inner Drive Technology. Purveyors of fine, hand-crafted computer software. Page printed 2020-05-29T23:45:16 UTC.